Terminal Aerodrome Forecast
Issued by NWS Huntsville, AL

Current Version | Previous Version | Text Only | Print | Product List | Glossary On
Versions: 1 2 3 4 5 6 7 8 9 10 11 12 13 14 15
000
FTUS44 KHUN 210520
TAFMSL
TAF
KMSL 210520Z 2106/2206 12007KT P6SM OVC250
     FM210900 12008KT P6SM BKN035 BKN100
     FM211300 14012KT P6SM VCSH BKN030 OVC050
     FM211600 14008KT 5SM -RA BR OVC015
     FM212000 15007KT 2SM -RA BR OVC009
     FM220300 10003KT 2SM BR OVC006=

USA.gov is the U.S. government's official web portal to all federal, state and local government web resources and services.